createdAt,value
2017-08-15T00:00:18.251Z,26.29
2017-08-15T00:01:18.285Z,26.23
2017-08-15T00:02:18.621Z,26.3
2017-08-15T00:03:18.649Z,26.17
2017-08-15T00:04:18.362Z,26.25
2017-08-15T00:05:18.710Z,26.29
2017-08-15T00:06:18.428Z,26.29
2017-08-15T00:07:18.763Z,26.32
2017-08-15T00:08:18.791Z,26.33
2017-08-15T00:09:18.511Z,26.29
2017-08-15T00:10:18.539Z,26.23
2017-08-15T00:11:18.564Z,26.26
2017-08-15T00:12:18.279Z,26.23
2017-08-15T00:13:19.191Z,26.26
2017-08-15T00:14:18.958Z,26.23
2017-08-15T00:15:18.991Z,26.25
2017-08-15T00:16:18.714Z,26.2
2017-08-15T00:17:18.738Z,26.18
2017-08-15T00:18:19.062Z,26.13
2017-08-15T00:19:18.483Z,26.09
2017-08-15T00:20:19.136Z,26.12
2017-08-15T00:21:18.852Z,26.1
2017-08-15T00:22:18.568Z,26.13
2017-08-15T00:23:19.522Z,26.07
2017-08-15T00:24:18.939Z,26.12
2017-08-15T00:25:18.967Z,26.07
2017-08-15T00:26:19.298Z,26.2
2017-08-15T00:27:19.025Z,26.15
2017-08-15T00:28:19.678Z,26.09
2017-08-15T00:29:19.085Z,26.07
2017-08-15T00:30:19.110Z,26.13
2017-08-15T00:31:19.137Z,26.1
2017-08-15T00:32:19.175Z,26.1
2017-08-15T00:33:19.814Z,26.09
2017-08-15T00:34:19.531Z,26.1
2017-08-15T00:35:18.932Z,26.05
2017-08-15T00:36:19.300Z,26.13
2017-08-15T00:37:18.995Z,26.13
2017-08-15T00:38:19.321Z,26.1
2017-08-15T00:39:19.679Z,26.13
2017-08-15T00:40:19.712Z,26.09
2017-08-15T00:41:19.736Z,26.1
2017-08-15T00:42:19.777Z,26.1
2017-08-15T00:43:20.094Z,26.17
2017-08-15T00:44:19.520Z,26.12
2017-08-15T00:45:19.228Z,26.05
2017-08-15T00:46:19.598Z,26.07
2017-08-15T00:47:19.909Z,26.1
2017-08-15T00:48:19.624Z,26.15
2017-08-15T00:49:19.655Z,26.13
2017-08-15T00:50:19.684Z,26.07
2017-08-15T00:51:19.713Z,26.17
2017-08-15T00:52:20.049Z,26.07
2017-08-15T00:53:20.378Z,26.09
2017-08-15T00:54:19.804Z,26.09
2017-08-15T00:55:20.136Z,26.06
2017-08-15T00:56:19.853Z,26.13
2017-08-15T00:57:19.881Z,26.09
2017-08-15T00:58:19.898Z,26.12
2017-08-15T00:59:20.259Z,26.06
2017-08-15T01:00:20.276Z,26.07
2017-08-15T01:01:19.996Z,26.1
2017-08-15T01:02:19.709Z,26.17
2017-08-15T01:03:20.354Z,26.07
2017-08-15T01:04:20.406Z,26.07
2017-08-15T01:05:20.107Z,26.1
2017-08-15T01:06:20.448Z,26.07
2017-08-15T01:07:20.169Z,26.07
2017-08-15T01:08:20.450Z,26.07
2017-08-15T01:09:20.535Z,26.12
2017-08-15T01:10:20.264Z,26.12
2017-08-15T01:11:20.285Z,26.07
2017-08-15T01:12:20.636Z,26.05
2017-08-15T01:13:20.595Z,26.09
2017-08-15T01:14:20.363Z,26.07
2017-08-15T01:15:20.084Z,26.01
2017-08-15T01:16:20.434Z,26.05
2017-08-15T01:17:20.452Z,26.09
2017-08-15T01:18:20.838Z,26.07
2017-08-15T01:19:20.507Z,26.01
2017-08-15T01:20:20.866Z,25.99
2017-08-15T01:21:20.570Z,26.05
2017-08-15T01:22:20.913Z,26.07
2017-08-15T01:23:21.238Z,26.05
2017-08-15T01:24:20.656Z,26.02
2017-08-15T01:25:20.685Z,26.05
2017-08-15T01:26:20.716Z,26.06
2017-08-15T01:27:20.738Z,25.95
2017-08-15T01:28:21.087Z,26.02
2017-08-15T01:29:20.808Z,26.01
2017-08-15T01:30:20.824Z,26.06
2017-08-15T01:31:20.858Z,26.05
2017-08-15T01:32:20.878Z,26.02
2017-08-15T01:33:21.222Z,26.06
2017-08-15T01:34:20.944Z,26.02
2017-08-15T01:35:20.656Z,25.92
2017-08-15T01:36:21.320Z,26.06
2017-08-15T01:37:21.331Z,25.99
2017-08-15T01:38:21.055Z,26.05
2017-08-15T01:39:21.087Z,26.05
2017-08-15T01:40:21.112Z,25.98
2017-08-15T01:41:21.449Z,26.02
2017-08-15T01:42:21.182Z,26.02
2017-08-15T01:43:20.906Z,25.94
2017-08-15T01:44:21.227Z,25.91
2017-08-15T01:45:21.565Z,25.91
2017-08-15T01:46:21.593Z,25.87
2017-08-15T01:47:20.998Z,25.98
2017-08-15T01:48:21.338Z,26.01
2017-08-15T01:49:21.374Z,26.02
2017-08-15T01:50:21.712Z,25.97
2017-08-15T01:51:21.739Z,26.02
2017-08-15T01:52:21.768Z,25.95
2017-08-15T01:53:21.795Z,26.02
2017-08-15T01:54:21.508Z,25.88
2017-08-15T01:55:21.531Z,25.9
2017-08-15T01:56:21.876Z,25.9
2017-08-15T01:57:21.599Z,25.98
2017-08-15T01:58:21.939Z,25.94
2017-08-15T01:59:21.971Z,25.92
2017-08-15T02:00:21.993Z,25.88
2017-08-15T02:01:21.396Z,25.9
2017-08-15T02:02:22.046Z,26.01
2017-08-15T02:03:21.768Z,25.94
2017-08-15T02:04:21.796Z,25.88
2017-08-15T02:05:21.821Z,25.87
2017-08-15T02:06:22.165Z,25.92
2017-08-15T02:07:21.877Z,25.88
2017-08-15T02:08:21.594Z,25.88
2017-08-15T02:09:21.628Z,25.91
2017-08-15T02:10:22.280Z,25.9
2017-08-15T02:11:21.997Z,25.91
2017-08-15T02:12:22.326Z,25.94
2017-08-15T02:13:22.067Z,25.92
2017-08-15T02:14:22.080Z,25.88
2017-08-15T02:15:22.419Z,25.92
2017-08-15T02:16:22.130Z,25.95
2017-08-15T02:17:22.162Z,25.9
2017-08-15T02:18:22.503Z,25.79
2017-08-15T02:19:21.912Z,25.97
2017-08-15T02:20:22.568Z,25.92
2017-08-15T02:21:22.282Z,25.97
2017-08-15T02:22:22.617Z,25.94
2017-08-15T02:23:22.673Z,25.85
2017-08-15T02:24:22.052Z,25.9
2017-08-15T02:25:22.385Z,25.94
2017-08-15T02:26:22.732Z,25.94
2017-08-15T02:27:22.444Z,25.92
2017-08-15T02:28:22.790Z,25.9
2017-08-15T02:29:22.818Z,25.87
2017-08-15T02:30:22.845Z,25.83
2017-08-15T02:31:22.556Z,25.87
2017-08-15T02:32:22.594Z,25.83
2017-08-15T02:33:22.936Z,25.83
2017-08-15T02:34:22.967Z,25.91
2017-08-15T02:35:22.998Z,25.79
2017-08-15T02:36:22.695Z,25.85
2017-08-15T02:37:22.739Z,25.85
2017-08-15T02:38:22.759Z,25.9
2017-08-15T02:39:23.108Z,25.87
2017-08-15T02:40:22.823Z,25.8
2017-08-15T02:41:23.162Z,25.8
2017-08-15T02:42:22.879Z,25.91
2017-08-15T02:43:22.908Z,25.83
2017-08-15T02:44:23.248Z,25.88
2017-08-15T02:45:23.276Z,25.87
2017-08-15T02:46:23.301Z,25.8
2017-08-15T02:47:23.331Z,25.77
2017-08-15T02:48:23.056Z,25.83
2017-08-15T02:49:23.387Z,25.79
2017-08-15T02:50:23.100Z,25.77
2017-08-15T02:51:23.453Z,25.82
2017-08-15T02:52:23.163Z,25.76
2017-08-15T02:53:23.187Z,25.75
2017-08-15T02:54:23.525Z,25.77
2017-08-15T02:55:23.245Z,25.76
2017-08-15T02:56:23.586Z,25.8
2017-08-15T02:57:23.304Z,25.76
2017-08-15T02:58:23.639Z,25.79
2017-08-15T02:59:23.361Z,25.75
2017-08-15T03:00:23.693Z,25.7
2017-08-15T03:01:23.445Z,25.77
2017-08-15T03:02:23.442Z,25.75
2017-08-15T03:03:23.160Z,25.77
2017-08-15T03:04:23.802Z,25.82
2017-08-15T03:05:24.085Z,25.73
2017-08-15T03:06:23.874Z,25.73
2017-08-15T03:07:23.896Z,25.7
2017-08-15T03:08:23.921Z,25.75
2017-08-15T03:09:24.204Z,25.76
2017-08-15T03:10:23.353Z,25.69
2017-08-15T03:11:23.386Z,25.79
2017-08-15T03:12:24.038Z,25.72
2017-08-15T03:13:23.751Z,25.8
2017-08-15T03:14:24.078Z,25.79
2017-08-15T03:15:23.497Z,25.75
2017-08-15T03:16:24.146Z,25.75
2017-08-15T03:17:23.558Z,25.75
2017-08-15T03:18:23.895Z,25.69
2017-08-15T03:19:24.495Z,25.7
2017-08-15T03:20:24.295Z,25.73
2017-08-15T03:21:23.674Z,25.75
2017-08-15T03:22:24.010Z,25.67
2017-08-15T03:23:24.347Z,25.7
2017-08-15T03:24:24.361Z,25.73
2017-08-15T03:25:24.404Z,25.72
2017-08-15T03:26:24.442Z,25.7
2017-08-15T03:27:23.842Z,25.73
2017-08-15T03:28:24.178Z,25.7
2017-08-15T03:29:24.820Z,25.65
2017-08-15T03:30:24.554Z,25.67
2017-08-15T03:31:24.578Z,25.62
2017-08-15T03:32:24.599Z,25.69
2017-08-15T03:33:24.317Z,25.67
2017-08-15T03:34:24.960Z,25.69
2017-08-15T03:35:24.689Z,25.69
2017-08-15T03:36:24.408Z,25.67
2017-08-15T03:37:24.742Z,25.7
2017-08-15T03:38:24.472Z,25.61
2017-08-15T03:39:25.104Z,25.61
2017-08-15T03:40:24.824Z,25.65
2017-08-15T03:41:24.234Z,25.65
2017-08-15T03:42:24.574Z,25.67
2017-08-15T03:43:24.910Z,25.64
2017-08-15T03:44:25.244Z,25.65
2017-08-15T03:45:24.666Z,25.62
2017-08-15T03:46:24.691Z,25.62
2017-08-15T03:47:24.715Z,25.54
2017-08-15T03:48:24.431Z,25.64
2017-08-15T03:49:25.077Z,25.61
2017-08-15T03:50:24.801Z,25.62
2017-08-15T03:51:24.830Z,25.65
2017-08-15T03:52:25.167Z,25.67
2017-08-15T03:53:25.199Z,25.64
2017-08-15T03:54:25.220Z,25.62
2017-08-15T03:55:24.941Z,25.62
2017-08-15T03:56:25.286Z,25.55
2017-08-15T03:57:25.293Z,25.65
2017-08-15T03:58:25.335Z,25.57
2017-08-15T03:59:25.724Z,25.54
2017-08-15T04:00:25.398Z,25.64
2017-08-15T04:01:25.426Z,25.6
2017-08-15T04:02:25.139Z,25.61
2017-08-15T04:04:34.424Z,25.61
2017-08-15T04:05:34.144Z,25.54
2017-08-15T04:06:34.194Z,25.6
2017-08-15T04:07:33.574Z,25.61
2017-08-15T04:08:34.220Z,25.6
2017-08-15T04:09:34.556Z,25.58
2017-08-15T04:10:34.285Z,25.55
2017-08-15T04:11:33.999Z,25.58
2017-08-15T04:12:34.037Z,25.58
2017-08-15T04:13:34.383Z,25.55
2017-08-15T04:14:34.340Z,25.6
2017-08-15T04:15:34.112Z,25.57
2017-08-15T04:16:34.455Z,25.55
2017-08-15T04:17:34.484Z,25.52
2017-08-15T04:18:34.516Z,25.61
2017-08-15T04:19:34.478Z,25.54
2017-08-15T04:20:34.573Z,25.57
2017-08-15T04:21:34.286Z,25.54
2017-08-15T04:22:34.646Z,25.55
2017-08-15T04:23:34.348Z,25.54
2017-08-15T04:24:34.660Z,25.52
2017-08-15T04:25:34.711Z,25.55
2017-08-15T04:26:34.740Z,25.6
2017-08-15T04:27:34.465Z,25.6
2017-08-15T04:28:34.800Z,25.52
2017-08-15T04:29:34.822Z,25.58
2017-08-15T04:30:34.845Z,25.58
2017-08-15T04:31:34.895Z,25.55
2017-08-15T04:32:34.906Z,25.54
2017-08-15T04:33:34.933Z,25.61
2017-08-15T04:34:34.645Z,25.51
2017-08-15T04:35:34.995Z,25.52
2017-08-15T04:36:34.706Z,25.55
2017-08-15T04:37:35.051Z,25.54
2017-08-15T04:38:34.765Z,25.54
2017-08-15T04:39:35.457Z,25.57
2017-08-15T04:40:35.133Z,25.55
2017-08-15T04:41:35.170Z,25.51
2017-08-15T04:42:35.196Z,25.58
2017-08-15T04:43:34.909Z,25.55
2017-08-15T04:44:35.237Z,25.6
2017-08-15T04:45:34.972Z,25.57
2017-08-15T04:46:34.999Z,25.52
2017-08-15T04:47:35.347Z,25.57
2017-08-15T04:48:35.052Z,25.58
2017-08-15T04:49:35.686Z,25.54
2017-08-15T04:50:35.422Z,25.51
2017-08-15T04:51:35.131Z,25.6
2017-08-15T04:52:35.473Z,25.54
2017-08-15T04:53:35.201Z,25.57
2017-08-15T04:54:35.825Z,25.54
2017-08-15T04:55:35.249Z,25.61
2017-08-15T04:56:35.276Z,25.55
2017-08-15T04:57:35.603Z,25.57
2017-08-15T04:58:35.640Z,25.52
2017-08-15T04:59:35.660Z,25.5
2017-08-15T05:00:35.074Z,25.51
2017-08-15T05:01:35.414Z,25.55
2017-08-15T05:02:35.436Z,25.46
2017-08-15T05:03:35.156Z,25.46
2017-08-15T05:04:36.116Z,25.45
2017-08-15T05:05:35.842Z,25.5
2017-08-15T05:06:35.555Z,25.5
2017-08-15T05:07:35.904Z,25.52
2017-08-15T05:08:35.929Z,25.57
2017-08-15T05:09:35.958Z,25.54
2017-08-15T05:10:35.669Z,25.5
2017-08-15T05:11:35.695Z,25.57
2017-08-15T05:12:35.728Z,25.5
2017-08-15T05:13:35.752Z,25.54
2017-08-15T05:14:35.469Z,25.58
2017-08-15T05:15:35.810Z,25.5
2017-08-15T05:16:36.143Z,25.52
2017-08-15T05:17:36.185Z,25.46
2017-08-15T05:18:35.896Z,25.47
2017-08-15T05:19:35.614Z,25.54
2017-08-15T05:20:35.951Z,25.5
2017-08-15T05:21:35.674Z,25.54
2017-08-15T05:22:36.018Z,25.52
2017-08-15T05:23:36.346Z,25.47
2017-08-15T05:24:36.370Z,25.47
2017-08-15T05:25:36.396Z,25.51
2017-08-15T05:26:36.119Z,25.52
2017-08-15T05:27:36.157Z,25.54
2017-08-15T05:28:36.169Z,25.46
2017-08-15T05:29:35.891Z,25.6
2017-08-15T05:30:36.847Z,25.57
2017-08-15T05:31:36.567Z,25.57
2017-08-15T05:32:36.293Z,25.52
2017-08-15T05:33:36.315Z,25.61
2017-08-15T05:34:36.345Z,25.6
2017-08-15T05:35:36.988Z,25.5
2017-08-15T05:36:36.698Z,25.58
2017-08-15T05:37:36.749Z,25.55
2017-08-15T05:38:36.459Z,25.52
2017-08-15T05:39:36.794Z,25.52
2017-08-15T05:40:37.070Z,25.46
2017-08-15T05:41:36.535Z,25.58
2017-08-15T05:42:36.257Z,25.5
2017-08-15T05:43:36.285Z,25.6
2017-08-15T05:44:36.936Z,25.55
2017-08-15T05:45:37.262Z,25.57
2017-08-15T05:46:36.990Z,25.51
2017-08-15T05:47:36.396Z,25.61
2017-08-15T05:48:36.743Z,25.57
2017-08-15T05:49:36.768Z,25.55
2017-08-15T05:50:37.086Z,25.58
2017-08-15T05:51:37.135Z,25.6
2017-08-15T05:52:37.159Z,25.58
2017-08-15T05:53:36.589Z,25.57
2017-08-15T05:54:37.216Z,25.58
2017-08-15T05:55:37.542Z,25.58
2017-08-15T05:56:37.274Z,25.6
2017-08-15T05:57:36.996Z,25.58
2017-08-15T05:58:37.334Z,25.62
2017-08-15T05:59:37.357Z,25.54
2017-08-15T06:00:37.407Z,25.61
2017-08-15T06:01:36.787Z,25.62
2017-08-15T06:02:36.820Z,25.64
2017-08-15T06:03:37.472Z,25.6
2017-08-15T06:04:37.189Z,25.62
2017-08-15T06:05:37.514Z,25.64
2017-08-15T06:06:37.558Z,25.65
2017-08-15T06:07:37.593Z,25.62
2017-08-15T06:08:37.296Z,25.61
2017-08-15T06:09:37.642Z,25.58
2017-08-15T06:10:37.666Z,25.65
2017-08-15T06:11:37.383Z,25.65
2017-08-15T06:12:37.416Z,25.62
2017-08-15T06:13:37.757Z,25.65
2017-08-15T06:14:37.781Z,25.67
2017-08-15T06:15:38.110Z,25.7
2017-08-15T06:16:37.536Z,25.64
2017-08-15T06:17:37.553Z,25.69
2017-08-15T06:18:37.893Z,25.65
2017-08-15T06:19:37.618Z,25.67
2017-08-15T06:20:37.943Z,25.72
2017-08-15T06:21:37.987Z,25.69
2017-08-15T06:22:38.008Z,25.69
2017-08-15T06:23:38.033Z,25.65
2017-08-15T06:24:38.057Z,25.69
2017-08-15T06:25:37.774Z,25.64
2017-08-15T06:26:38.141Z,25.65
2017-08-15T06:27:38.152Z,25.67
2017-08-15T06:28:38.198Z,25.67
2017-08-15T06:29:38.202Z,25.64
2017-08-15T06:30:38.231Z,25.69
2017-08-15T06:31:38.259Z,25.73
2017-08-15T06:32:37.984Z,25.69
2017-08-15T06:33:38.317Z,25.7
2017-08-15T06:34:38.034Z,25.73
2017-08-15T06:35:38.063Z,25.72
2017-08-15T06:36:37.779Z,25.7
2017-08-15T06:37:38.436Z,25.7
2017-08-15T06:38:38.141Z,25.73
2017-08-15T06:39:38.498Z,25.76
2017-08-15T06:40:38.507Z,25.72
2017-08-15T06:41:38.544Z,25.72
2017-08-15T06:42:38.581Z,25.7
2017-08-15T06:43:38.595Z,25.73
2017-08-15T06:44:38.627Z,25.72
2017-08-15T06:45:38.347Z,25.72
2017-08-15T06:46:38.059Z,25.79
2017-08-15T06:47:38.716Z,25.75
2017-08-15T06:48:38.428Z,25.8
2017-08-15T06:49:38.454Z,25.82
2017-08-15T06:50:38.800Z,25.82
2017-08-15T06:51:38.824Z,25.76
2017-08-15T06:52:38.851Z,25.75
2017-08-15T06:53:38.574Z,25.8
2017-08-15T06:54:38.909Z,25.8
2017-08-15T06:55:38.628Z,25.82
2017-08-15T06:56:38.971Z,25.76
2017-08-15T06:57:38.690Z,25.83
2017-08-15T06:58:39.037Z,25.77
2017-08-15T06:59:39.067Z,25.77
2017-08-15T07:00:39.078Z,25.77
2017-08-15T07:01:38.794Z,25.76
2017-08-15T07:02:38.869Z,25.77
2017-08-15T07:03:39.166Z,25.79
2017-08-15T07:04:39.194Z,25.82
2017-08-15T07:05:39.230Z,25.83
2017-08-15T07:06:39.248Z,25.83
2017-08-15T07:07:38.964Z,25.9
2017-08-15T07:08:39.295Z,25.9
2017-08-15T07:09:39.029Z,25.87
2017-08-15T07:10:38.738Z,25.83
2017-08-15T07:11:39.067Z,25.87
2017-08-15T07:12:39.424Z,25.9
2017-08-15T07:13:39.137Z,25.9
2017-08-15T07:14:39.159Z,25.92
2017-08-15T07:15:39.195Z,25.9
2017-08-15T07:16:39.151Z,25.87
2017-08-15T07:17:39.559Z,25.92
2017-08-15T07:18:39.585Z,25.92
2017-08-15T07:19:39.626Z,25.94
2017-08-15T07:20:39.647Z,25.91
2017-08-15T07:21:39.978Z,25.9
2017-08-15T07:22:39.705Z,25.91
2017-08-15T07:23:39.418Z,25.94
2017-08-15T07:24:39.134Z,25.91
2017-08-15T07:25:39.479Z,25.87
2017-08-15T07:26:39.805Z,25.88
2017-08-15T07:27:39.536Z,25.95
2017-08-15T07:28:39.582Z,25.92
2017-08-15T07:29:39.901Z,25.98
2017-08-15T07:30:39.307Z,26.01
2017-08-15T07:31:40.233Z,26.01
2017-08-15T07:32:40.009Z,26.05
2017-08-15T07:33:40.036Z,26.06
2017-08-15T07:34:39.735Z,26.06
2017-08-15T07:35:40.066Z,26.09
2017-08-15T07:36:40.110Z,26.09
2017-08-15T07:37:40.129Z,26.09
2017-08-15T07:38:40.159Z,26.06
2017-08-15T07:39:40.185Z,26.05
2017-08-15T07:40:40.233Z,26.13
2017-08-15T07:41:40.178Z,26.07
2017-08-15T07:42:40.274Z,26.1
2017-08-15T07:43:39.986Z,26.06
2017-08-15T07:44:40.330Z,26.07
2017-08-15T07:45:40.371Z,26.13
2017-08-15T07:46:40.689Z,26.06
2017-08-15T07:47:40.423Z,26.21
2017-08-15T07:48:40.442Z,26.23
2017-08-15T07:49:40.165Z,26.2
2017-08-15T07:50:40.181Z,26.17
2017-08-15T07:51:40.468Z,26.21
2017-08-15T07:52:40.245Z,26.26
2017-08-15T07:53:40.274Z,26.3
2017-08-15T07:54:40.304Z,26.32
2017-08-15T07:55:40.643Z,26.3
2017-08-15T07:56:40.928Z,26.25
2017-08-15T07:57:40.700Z,26.25
2017-08-15T07:58:40.732Z,26.28
2017-08-15T07:59:40.774Z,26.33
2017-08-15T08:00:40.471Z,26.36
2017-08-15T08:01:41.115Z,26.32
2017-08-15T08:02:40.530Z,26.33
2017-08-15T08:03:40.873Z,26.28
2017-08-15T08:04:40.906Z,26.35
2017-08-15T08:05:40.925Z,26.35
2017-08-15T08:06:40.333Z,26.43
2017-08-15T08:07:40.672Z,26.47
2017-08-15T08:08:40.704Z,26.44
2017-08-15T08:09:40.726Z,26.4
2017-08-15T08:10:41.087Z,26.47
2017-08-15T08:11:40.798Z,26.44
2017-08-15T08:12:41.129Z,26.37
2017-08-15T08:13:41.160Z,26.52
2017-08-15T08:14:41.183Z,26.39
2017-08-15T08:15:40.903Z,26.48
2017-08-15T08:16:40.938Z,26.51
2017-08-15T08:17:41.306Z,26.44
2017-08-15T08:18:40.986Z,26.55
2017-08-15T08:19:41.335Z,26.54
2017-08-15T08:20:41.044Z,26.55
2017-08-15T08:21:41.080Z,26.62
2017-08-15T08:22:41.430Z,26.55
2017-08-15T08:23:41.442Z,26.6
2017-08-15T08:24:41.161Z,26.6
2017-08-15T08:25:41.503Z,26.52
2017-08-15T08:26:41.530Z,26.65
2017-08-15T08:27:41.561Z,26.62
2017-08-15T08:28:41.589Z,26.66
2017-08-15T08:29:41.615Z,26.67
2017-08-15T08:30:41.335Z,26.67
2017-08-15T08:31:41.369Z,26.65
2017-08-15T08:32:41.705Z,26.76
2017-08-15T08:33:41.730Z,26.75
2017-08-15T08:34:41.766Z,26.77
2017-08-15T08:35:41.485Z,26.77
2017-08-15T08:36:41.512Z,26.8
2017-08-15T08:37:41.870Z,26.8
2017-08-15T08:38:41.878Z,26.84
2017-08-15T08:39:41.596Z,26.81
2017-08-15T08:40:41.624Z,26.85
2017-08-15T08:41:41.657Z,26.94
2017-08-15T08:42:42.251Z,26.85
2017-08-15T08:43:42.025Z,26.91
2017-08-15T08:44:42.066Z,26.91
2017-08-15T08:45:42.097Z,26.89
2017-08-15T08:46:41.793Z,26.92
2017-08-15T08:47:42.121Z,26.92
2017-08-15T08:48:42.166Z,26.94
2017-08-15T08:49:42.191Z,26.92
2017-08-15T08:50:42.246Z,27
2017-08-15T08:51:42.259Z,26.95
2017-08-15T08:52:42.528Z,27
2017-08-15T08:53:42.319Z,26.97
2017-08-15T08:54:42.344Z,26.91
2017-08-15T08:55:42.062Z,26.95
2017-08-15T08:56:42.085Z,27.04
2017-08-15T08:57:42.368Z,27.03
2017-08-15T08:58:42.453Z,27.02
2017-08-15T08:59:42.170Z,26.94
2017-08-15T09:00:42.512Z,27.06
2017-08-15T09:01:42.537Z,26.97
2017-08-15T09:02:42.565Z,26.95
2017-08-15T09:03:42.631Z,26.95
2017-08-15T09:04:42.635Z,26.97
2017-08-15T09:05:42.679Z,27.02
2017-08-15T09:06:42.388Z,27.02
2017-08-15T09:07:43.023Z,27.03
2017-08-15T09:08:42.747Z,27.04
2017-08-15T09:09:42.470Z,26.99
2017-08-15T09:10:42.808Z,27.06
2017-08-15T09:11:42.211Z,27.04
2017-08-15T09:12:42.844Z,26.99
2017-08-15T09:13:42.900Z,26.99
2017-08-15T09:14:42.924Z,26.99
2017-08-15T09:15:42.977Z,27.02
2017-08-15T09:16:42.982Z,27.07
2017-08-15T09:17:42.677Z,27.06
2017-08-15T09:18:43.065Z,27.1
2017-08-15T09:19:42.752Z,27.03
2017-08-15T09:20:42.789Z,27.06
2017-08-15T09:21:43.125Z,27.13
2017-08-15T09:22:42.809Z,27.1
2017-08-15T09:23:42.562Z,27.13
2017-08-15T09:24:43.210Z,27.07
2017-08-15T09:25:43.236Z,27.1
2017-08-15T09:26:43.278Z,27.13
2017-08-15T09:27:43.286Z,27.14
2017-08-15T09:28:43.012Z,27.19
2017-08-15T09:29:43.048Z,27.12
2017-08-15T09:30:43.388Z,27.22
2017-08-15T09:31:43.412Z,27.19
2017-08-15T09:32:43.431Z,27.18
2017-08-15T09:33:43.482Z,27.22
2017-08-15T09:34:43.504Z,27.25
2017-08-15T09:35:43.540Z,27.22
2017-08-15T09:36:43.248Z,27.25
2017-08-15T09:37:43.841Z,27.19
2017-08-15T09:38:43.624Z,27.21
2017-08-15T09:39:43.335Z,27.21
2017-08-15T09:40:43.384Z,27.14
2017-08-15T09:41:43.116Z,27.19
2017-08-15T09:42:44.054Z,27.19
2017-08-15T09:43:43.455Z,27.19
2017-08-15T09:44:43.492Z,27.12
2017-08-15T09:45:43.820Z,27.25
2017-08-15T09:46:43.546Z,27.17
2017-08-15T09:47:44.134Z,27.19
2017-08-15T09:48:43.915Z,27.09
2017-08-15T09:49:43.944Z,27.21
2017-08-15T09:50:43.657Z,27.12
2017-08-15T09:51:43.698Z,27.12
2017-08-15T09:52:43.419Z,27.27
2017-08-15T09:53:44.059Z,27.18
2017-08-15T09:54:43.776Z,27.22
2017-08-15T09:55:43.806Z,27.13
2017-08-15T09:56:44.148Z,27.1
2017-08-15T09:57:44.177Z,27.1
2017-08-15T09:58:43.892Z,27.22
2017-08-15T09:59:44.232Z,27.1
2017-08-15T10:00:44.264Z,27.12
2017-08-15T10:01:43.982Z,27.19
2017-08-15T10:02:44.315Z,27.12
2017-08-15T10:03:44.351Z,27.13
2017-08-15T10:04:43.784Z,27.03
2017-08-15T10:05:44.412Z,27.14
2017-08-15T10:06:44.138Z,27.18
2017-08-15T10:07:44.475Z,27.07
2017-08-15T10:08:44.488Z,27.14
2017-08-15T10:09:44.222Z,27.09
2017-08-15T10:10:44.249Z,27.09
2017-08-15T10:11:44.582Z,27.09
2017-08-15T10:12:44.621Z,27.18
2017-08-15T10:13:44.636Z,27.1
2017-08-15T10:14:44.676Z,27.06
2017-08-15T10:15:44.077Z,27
2017-08-15T10:16:44.422Z,26.95
2017-08-15T10:17:44.763Z,27
2017-08-15T10:18:44.470Z,26.95
2017-08-15T10:19:44.832Z,27.06
2017-08-15T10:20:44.539Z,26.95
2017-08-15T10:21:44.250Z,26.92
2017-08-15T10:22:44.902Z,26.95
2017-08-15T10:23:44.939Z,26.94
2017-08-15T10:24:44.960Z,26.92
2017-08-15T10:25:44.991Z,26.85
2017-08-15T10:26:45.026Z,26.87
2017-08-15T10:27:44.735Z,26.92
2017-08-15T10:28:45.080Z,26.77
2017-08-15T10:29:45.108Z,26.84
2017-08-15T10:30:45.137Z,26.81
2017-08-15T10:31:45.169Z,26.77
2017-08-15T10:32:44.574Z,26.84
2017-08-15T10:33:44.606Z,26.82
2017-08-15T10:34:44.943Z,26.82
2017-08-15T10:35:44.662Z,26.81
2017-08-15T10:36:44.999Z,26.75
2017-08-15T10:37:45.036Z,26.67
2017-08-15T10:38:45.067Z,26.73
2017-08-15T10:39:45.400Z,26.69
2017-08-15T10:40:45.114Z,26.7
2017-08-15T10:41:45.450Z,26.77
2017-08-15T10:42:45.494Z,26.76
2017-08-15T10:43:45.508Z,26.77
2017-08-15T10:44:45.231Z,26.63
2017-08-15T10:45:45.269Z,26.67
2017-08-15T10:46:45.294Z,26.58
2017-08-15T10:47:45.319Z,26.66
2017-08-15T10:48:45.647Z,26.62
2017-08-15T10:49:45.381Z,26.69
2017-08-15T10:50:45.093Z,26.65
2017-08-15T10:51:45.746Z,26.69
2017-08-15T10:52:45.151Z,26.63
2017-08-15T10:53:46.109Z,26.67
2017-08-15T10:54:45.840Z,26.65
2017-08-15T10:55:45.873Z,26.66
2017-08-15T10:56:45.922Z,26.69
2017-08-15T10:57:45.612Z,26.66
2017-08-15T10:58:46.205Z,26.6
2017-08-15T10:59:45.680Z,26.63
2017-08-15T11:00:46.006Z,26.67
2017-08-15T11:01:46.046Z,26.63
2017-08-15T11:02:45.766Z,26.67
2017-08-15T11:03:46.388Z,26.66
2017-08-15T11:04:46.129Z,26.65
2017-08-15T11:05:46.145Z,26.51
2017-08-15T11:06:46.186Z,26.69
2017-08-15T11:07:45.898Z,26.54
2017-08-15T11:08:46.554Z,26.62
2017-08-15T11:09:45.949Z,26.58
2017-08-15T11:10:46.323Z,26.55
2017-08-15T11:11:46.018Z,26.6
2017-08-15T11:12:46.076Z,26.45
2017-08-15T11:13:46.701Z,26.52
2017-08-15T11:14:46.424Z,26.58
2017-08-15T11:15:46.136Z,26.52
2017-08-15T11:16:46.155Z,26.55
2017-08-15T11:17:46.500Z,26.55
2017-08-15T11:18:46.836Z,26.51
2017-08-15T11:19:46.250Z,26.48
2017-08-15T11:20:46.278Z,26.55
2017-08-15T11:21:46.313Z,26.39
2017-08-15T11:22:46.340Z,26.43
2017-08-15T11:23:46.676Z,26.39
2017-08-15T11:24:46.700Z,26.43
2017-08-15T11:25:46.421Z,26.51
2017-08-15T11:26:46.766Z,26.51
2017-08-15T11:27:46.791Z,26.45
2017-08-15T11:28:46.451Z,26.43
2017-08-15T11:29:46.533Z,26.4
2017-08-15T11:30:46.878Z,26.45
2017-08-15T11:31:46.911Z,26.48
2017-08-15T11:32:46.306Z,26.43
2017-08-15T11:33:46.904Z,26.4
2017-08-15T11:34:46.692Z,26.36
2017-08-15T11:35:46.410Z,26.39
2017-08-15T11:36:47.047Z,26.43
2017-08-15T11:37:47.089Z,26.39
2017-08-15T11:38:47.404Z,26.37
2017-08-15T11:39:46.829Z,26.36
2017-08-15T11:40:47.194Z,26.33
2017-08-15T11:41:47.205Z,26.33
2017-08-15T11:42:46.908Z,26.39
2017-08-15T11:43:47.560Z,26.36
2017-08-15T11:44:47.287Z,26.29
2017-08-15T11:45:46.686Z,26.33
2017-08-15T11:46:47.347Z,26.26
2017-08-15T11:47:47.359Z,26.32
2017-08-15T11:48:47.664Z,26.28
2017-08-15T11:49:47.114Z,26.28
2017-08-15T11:50:47.147Z,26.3
2017-08-15T11:51:47.178Z,26.29
2017-08-15T11:52:47.223Z,26.28
2017-08-15T11:53:47.836Z,26.32
2017-08-15T11:54:46.945Z,26.32
2017-08-15T11:55:47.607Z,26.2
2017-08-15T11:56:47.634Z,26.25
2017-08-15T11:57:47.345Z,26.25
2017-08-15T11:58:47.625Z,26.21
2017-08-15T11:59:47.411Z,26.2
2017-08-15T12:00:47.432Z,26.09
2017-08-15T12:01:47.775Z,26.07
2017-08-15T12:02:47.809Z,26.13
2017-08-15T12:03:48.133Z,26.21
2017-08-15T12:04:47.858Z,26.25
2017-08-15T12:05:47.892Z,26.23
2017-08-15T12:06:47.319Z,26.33
2017-08-15T12:07:47.628Z,26.35
2017-08-15T12:08:47.353Z,26.3
2017-08-15T12:09:47.686Z,26.33
2017-08-15T12:10:48.031Z,26.35
2017-08-15T12:11:48.064Z,26.36
2017-08-15T12:12:47.777Z,26.33
2017-08-15T12:13:47.809Z,26.45
2017-08-15T12:14:48.164Z,26.47
2017-08-15T12:15:48.211Z,26.52
2017-08-15T12:16:47.579Z,26.44
2017-08-15T12:17:48.241Z,26.54
2017-08-15T12:18:48.296Z,26.52
2017-08-15T12:19:47.977Z,26.57
2017-08-15T12:20:48.314Z,26.62
2017-08-15T12:21:48.357Z,26.62
2017-08-15T12:22:48.069Z,26.75
2017-08-15T12:23:48.414Z,26.8
2017-08-15T12:24:48.121Z,26.81
2017-08-15T12:25:48.150Z,26.87
2017-08-15T12:26:48.204Z,26.99
2017-08-15T12:27:48.529Z,26.94
2017-08-15T12:28:48.552Z,27.04
2017-08-15T12:29:47.983Z,27.02
2017-08-15T12:30:48.611Z,27.03
2017-08-15T12:31:48.021Z,27.18
2017-08-15T12:32:48.361Z,27.1
2017-08-15T12:33:48.698Z,27.1
2017-08-15T12:34:48.721Z,27.12
2017-08-15T12:35:48.139Z,27.13
2017-08-15T12:36:48.789Z,27.07
2017-08-15T12:37:48.500Z,27.06
2017-08-15T12:38:48.570Z,27.07
2017-08-15T12:39:48.578Z,27.09
2017-08-15T12:40:48.598Z,27.07
2017-08-15T12:41:48.946Z,27.03
2017-08-15T12:42:48.961Z,27.12
2017-08-15T12:43:48.681Z,26.99
2017-08-15T12:44:49.024Z,27.04
2017-08-15T12:45:48.739Z,27.02
2017-08-15T12:46:49.077Z,26.97
2017-08-15T12:47:48.812Z,27
2017-08-15T12:48:49.138Z,27.06
2017-08-15T12:49:49.171Z,26.94
2017-08-15T12:50:48.894Z,26.91
2017-08-15T12:51:48.908Z,26.91
2017-08-15T12:52:49.263Z,26.99
2017-08-15T12:53:49.286Z,26.88
2017-08-15T12:54:49.332Z,26.92
2017-08-15T12:55:49.344Z,26.92
2017-08-15T12:56:49.063Z,26.95
2017-08-15T12:57:49.406Z,26.94